sensor_id;sensor_type;location;lat;lon;timestamp;P1;durP1;ratioP1;P2;durP2;ratioP2
21162;SDS011;10739;52.198;20.908;2023-05-07T00:00:48;10.80;;;4.60;;
21162;SDS011;10739;52.198;20.908;2023-05-07T00:03:15;7.28;;;4.50;;
21162;SDS011;10739;52.198;20.908;2023-05-07T00:05:41;6.80;;;4.32;;
21162;SDS011;10739;52.198;20.908;2023-05-07T00:08:07;8.68;;;5.40;;
21162;SDS011;10739;52.198;20.908;2023-05-07T00:10:34;5.97;;;4.78;;
21162;SDS011;10739;52.198;20.908;2023-05-07T00:13:00;8.55;;;4.45;;
21162;SDS011;10739;52.198;20.908;2023-05-07T00:15:26;14.63;;;5.00;;
21162;SDS011;10739;52.198;20.908;2023-05-07T00:17:53;6.72;;;4.82;;
21162;SDS011;10739;52.198;20.908;2023-05-07T00:20:19;5.38;;;4.25;;
21162;SDS011;10739;52.198;20.908;2023-05-07T00:22:45;6.45;;;4.60;;
21162;SDS011;10739;52.198;20.908;2023-05-07T00:25:12;5.30;;;4.50;;
21162;SDS011;10739;52.198;20.908;2023-05-07T00:27:38;6.60;;;4.63;;
21162;SDS011;10739;52.198;20.908;2023-05-07T00:30:05;9.25;;;4.70;;
21162;SDS011;10739;52.198;20.908;2023-05-07T00:32:32;6.78;;;4.95;;
21162;SDS011;10739;52.198;20.908;2023-05-07T00:34:58;6.95;;;4.50;;
21162;SDS011;10739;52.198;20.908;2023-05-07T00:37:25;6.30;;;4.93;;
21162;SDS011;10739;52.198;20.908;2023-05-07T00:39:51;6.15;;;4.25;;
21162;SDS011;10739;52.198;20.908;2023-05-07T00:42:25;6.50;;;5.05;;
21162;SDS011;10739;52.198;20.908;2023-05-07T00:44:51;5.88;;;4.68;;
21162;SDS011;10739;52.198;20.908;2023-05-07T00:47:22;6.60;;;4.40;;
21162;SDS011;10739;52.198;20.908;2023-05-07T00:49:56;7.78;;;4.82;;
21162;SDS011;10739;52.198;20.908;2023-05-07T00:52:23;6.07;;;4.28;;
21162;SDS011;10739;52.198;20.908;2023-05-07T00:54:52;7.53;;;4.40;;
21162;SDS011;10739;52.198;20.908;2023-05-07T00:57:19;5.05;;;4.10;;
21162;SDS011;10739;52.198;20.908;2023-05-07T00:59:48;4.93;;;4.20;;
21162;SDS011;10739;52.198;20.908;2023-05-07T01:02:15;7.25;;;4.63;;
21162;SDS011;10739;52.198;20.908;2023-05-07T01:04:42;6.45;;;4.72;;
21162;SDS011;10739;52.198;20.908;2023-05-07T01:07:08;5.40;;;4.55;;
21162;SDS011;10739;52.198;20.908;2023-05-07T01:09:35;10.20;;;4.93;;
21162;SDS011;10739;52.198;20.908;2023-05-07T01:12:02;5.90;;;4.68;;
21162;SDS011;10739;52.198;20.908;2023-05-07T01:14:30;6.80;;;4.45;;
21162;SDS011;10739;52.198;20.908;2023-05-07T01:16:58;6.97;;;4.63;;
21162;SDS011;10739;52.198;20.908;2023-05-07T01:19:24;6.18;;;4.05;;
21162;SDS011;10739;52.198;20.908;2023-05-07T01:21:52;5.35;;;4.20;;
21162;SDS011;10739;52.198;20.908;2023-05-07T01:24:31;6.72;;;4.20;;
21162;SDS011;10739;52.198;20.908;2023-05-07T01:26:59;5.93;;;4.50;;
21162;SDS011;10739;52.198;20.908;2023-05-07T01:29:27;6.63;;;4.10;;
21162;SDS011;10739;52.198;20.908;2023-05-07T01:31:54;6.28;;;4.50;;
21162;SDS011;10739;52.198;20.908;2023-05-07T01:34:24;6.47;;;4.85;;
21162;SDS011;10739;52.198;20.908;2023-05-07T01:36:55;6.03;;;4.68;;
21162;SDS011;10739;52.198;20.908;2023-05-07T01:39:25;4.93;;;4.20;;
21162;SDS011;10739;52.198;20.908;2023-05-07T01:41:56;7.55;;;4.68;;
21162;SDS011;10739;52.198;20.908;2023-05-07T01:44:24;6.53;;;4.72;;
21162;SDS011;10739;52.198;20.908;2023-05-07T01:46:52;5.68;;;4.45;;
21162;SDS011;10739;52.198;20.908;2023-05-07T01:49:20;7.10;;;4.90;;
21162;SDS011;10739;52.198;20.908;2023-05-07T01:51:46;5.35;;;3.92;;
21162;SDS011;10739;52.198;20.908;2023-05-07T01:54:13;4.57;;;4.00;;
21162;SDS011;10739;52.198;20.908;2023-05-07T01:56:39;6.97;;;4.32;;
21162;SDS011;10739;52.198;20.908;2023-05-07T01:59:06;4.90;;;4.18;;
21162;SDS011;10739;52.198;20.908;2023-05-07T02:01:32;7.55;;;5.13;;
21162;SDS011;10739;52.198;20.908;2023-05-07T02:03:59;5.55;;;4.30;;
21162;SDS011;10739;52.198;20.908;2023-05-07T02:06:25;6.78;;;4.10;;
21162;SDS011;10739;52.198;20.908;2023-05-07T02:08:51;7.97;;;5.18;;
21162;SDS011;10739;52.198;20.908;2023-05-07T02:11:17;5.32;;;3.97;;
21162;SDS011;10739;52.198;20.908;2023-05-07T02:13:44;6.47;;;4.78;;
21162;SDS011;10739;52.198;20.908;2023-05-07T02:16:10;6.15;;;4.80;;
21162;SDS011;10739;52.198;20.908;2023-05-07T02:18:36;8.40;;;4.30;;
21162;SDS011;10739;52.198;20.908;2023-05-07T02:21:03;7.78;;;4.10;;
21162;SDS011;10739;52.198;20.908;2023-05-07T02:23:29;7.45;;;4.68;;
21162;SDS011;10739;52.198;20.908;2023-05-07T02:25:55;5.72;;;4.15;;
21162;SDS011;10739;52.198;20.908;2023-05-07T02:28:22;5.07;;;4.25;;
21162;SDS011;10739;52.198;20.908;2023-05-07T02:30:48;6.35;;;4.18;;
21162;SDS011;10739;52.198;20.908;2023-05-07T02:33:14;7.63;;;4.25;;
21162;SDS011;10739;52.198;20.908;2023-05-07T02:35:41;5.55;;;4.13;;
21162;SDS011;10739;52.198;20.908;2023-05-07T02:38:07;4.97;;;3.78;;
21162;SDS011;10739;52.198;20.908;2023-05-07T02:40:36;7.60;;;4.50;;
21162;SDS011;10739;52.198;20.908;2023-05-07T02:43:05;8.63;;;3.80;;
21162;SDS011;10739;52.198;20.908;2023-05-07T02:45:32;5.45;;;3.90;;
21162;SDS011;10739;52.198;20.908;2023-05-07T02:47:59;4.78;;;4.10;;
21162;SDS011;10739;52.198;20.908;2023-05-07T02:50:25;5.03;;;4.55;;
21162;SDS011;10739;52.198;20.908;2023-05-07T02:52:52;7.75;;;4.30;;
21162;SDS011;10739;52.198;20.908;2023-05-07T02:55:18;4.10;;;3.65;;
21162;SDS011;10739;52.198;20.908;2023-05-07T02:57:45;5.53;;;3.78;;
21162;SDS011;10739;52.198;20.908;2023-05-07T03:00:14;7.55;;;4.20;;
21162;SDS011;10739;52.198;20.908;2023-05-07T03:02:46;6.18;;;4.00;;
21162;SDS011;10739;52.198;20.908;2023-05-07T03:05:12;7.30;;;3.78;;
21162;SDS011;10739;52.198;20.908;2023-05-07T03:07:39;7.43;;;3.85;;
21162;SDS011;10739;52.198;20.908;2023-05-07T03:10:09;4.90;;;3.88;;
21162;SDS011;10739;52.198;20.908;2023-05-07T03:12:35;9.95;;;4.10;;
21162;SDS011;10739;52.198;20.908;2023-05-07T03:15:02;5.03;;;3.90;;
21162;SDS011;10739;52.198;20.908;2023-05-07T03:17:28;5.03;;;3.65;;
21162;SDS011;10739;52.198;20.908;2023-05-07T03:19:54;7.57;;;3.47;;
21162;SDS011;10739;52.198;20.908;2023-05-07T03:22:20;6.95;;;3.50;;
21162;SDS011;10739;52.198;20.908;2023-05-07T03:24:47;5.00;;;3.80;;
21162;SDS011;10739;52.198;20.908;2023-05-07T03:27:13;5.25;;;3.55;;
21162;SDS011;10739;52.198;20.908;2023-05-07T03:29:39;6.10;;;3.78;;
21162;SDS011;10739;52.198;20.908;2023-05-07T03:32:06;4.35;;;3.65;;
21162;SDS011;10739;52.198;20.908;2023-05-07T03:34:32;6.22;;;3.65;;
21162;SDS011;10739;52.198;20.908;2023-05-07T03:36:58;5.53;;;3.45;;
21162;SDS011;10739;52.198;20.908;2023-05-07T03:39:25;5.35;;;4.20;;
21162;SDS011;10739;52.198;20.908;2023-05-07T03:41:51;4.10;;;3.58;;
21162;SDS011;10739;52.198;20.908;2023-05-07T03:44:18;6.53;;;4.10;;
21162;SDS011;10739;52.198;20.908;2023-05-07T03:46:44;4.80;;;4.07;;
21162;SDS011;10739;52.198;20.908;2023-05-07T03:49:10;7.07;;;3.70;;
21162;SDS011;10739;52.198;20.908;2023-05-07T03:51:36;4.45;;;3.55;;
21162;SDS011;10739;52.198;20.908;2023-05-07T03:54:03;4.65;;;3.55;;
21162;SDS011;10739;52.198;20.908;2023-05-07T03:56:30;5.65;;;3.97;;
21162;SDS011;10739;52.198;20.908;2023-05-07T03:58:56;3.58;;;3.10;;
21162;SDS011;10739;52.198;20.908;2023-05-07T04:01:22;6.80;;;3.40;;
21162;SDS011;10739;52.198;20.908;2023-05-07T04:03:49;4.05;;;3.58;;
21162;SDS011;10739;52.198;20.908;2023-05-07T04:06:18;6.90;;;4.10;;
21162;SDS011;10739;52.198;20.908;2023-05-07T04:08:44;4.88;;;3.35;;
21162;SDS011;10739;52.198;20.908;2023-05-07T04:11:11;5.40;;;3.55;;
21162;SDS011;10739;52.198;20.908;2023-05-07T04:13:37;3.65;;;3.35;;
21162;SDS011;10739;52.198;20.908;2023-05-07T04:16:04;5.65;;;3.22;;
21162;SDS011;10739;52.198;20.908;2023-05-07T04:18:31;5.95;;;3.83;;
21162;SDS011;10739;52.198;20.908;2023-05-07T04:20:57;3.95;;;3.42;;
21162;SDS011;10739;52.198;20.908;2023-05-07T04:23:24;4.05;;;3.40;;
21162;SDS011;10739;52.198;20.908;2023-05-07T04:25:50;4.03;;;3.05;;
21162;SDS011;10739;52.198;20.908;2023-05-07T04:28:16;4.53;;;3.75;;
21162;SDS011;10739;52.198;20.908;2023-05-07T04:30:43;5.70;;;3.78;;
21162;SDS011;10739;52.198;20.908;2023-05-07T04:33:09;5.25;;;3.60;;
21162;SDS011;10739;52.198;20.908;2023-05-07T04:35:36;7.97;;;4.00;;
21162;SDS011;10739;52.198;20.908;2023-05-07T04:38:03;4.25;;;3.85;;
21162;SDS011;10739;52.198;20.908;2023-05-07T04:40:29;5.93;;;3.88;;
21162;SDS011;10739;52.198;20.908;2023-05-07T04:42:55;4.28;;;3.78;;
21162;SDS011;10739;52.198;20.908;2023-05-07T04:45:21;6.15;;;3.95;;
21162;SDS011;10739;52.198;20.908;2023-05-07T04:47:47;8.73;;;3.67;;
21162;SDS011;10739;52.198;20.908;2023-05-07T04:50:14;5.15;;;3.42;;
21162;SDS011;10739;52.198;20.908;2023-05-07T04:52:40;8.65;;;3.97;;
21162;SDS011;10739;52.198;20.908;2023-05-07T04:55:07;6.45;;;3.90;;
21162;SDS011;10739;52.198;20.908;2023-05-07T04:57:34;4.85;;;3.63;;
21162;SDS011;10739;52.198;20.908;2023-05-07T05:00:00;4.13;;;3.28;;
21162;SDS011;10739;52.198;20.908;2023-05-07T05:02:26;4.88;;;3.50;;
21162;SDS011;10739;52.198;20.908;2023-05-07T05:04:52;3.63;;;3.28;;
21162;SDS011;10739;52.198;20.908;2023-05-07T05:07:19;6.88;;;3.45;;
21162;SDS011;10739;52.198;20.908;2023-05-07T05:09:45;6.05;;;3.15;;
21162;SDS011;10739;52.198;20.908;2023-05-07T05:12:11;6.82;;;3.60;;
21162;SDS011;10739;52.198;20.908;2023-05-07T05:14:38;4.72;;;3.35;;
21162;SDS011;10739;52.198;20.908;2023-05-07T05:17:04;6.68;;;3.45;;
21162;SDS011;10739;52.198;20.908;2023-05-07T05:19:30;5.63;;;3.25;;
21162;SDS011;10739;52.198;20.908;2023-05-07T05:21:57;5.55;;;3.28;;
21162;SDS011;10739;52.198;20.908;2023-05-07T05:24:23;4.70;;;2.95;;
21162;SDS011;10739;52.198;20.908;2023-05-07T05:26:49;4.03;;;3.00;;
21162;SDS011;10739;52.198;20.908;2023-05-07T05:29:18;3.92;;;3.08;;
21162;SDS011;10739;52.198;20.908;2023-05-07T05:31:45;3.33;;;3.03;;
21162;SDS011;10739;52.198;20.908;2023-05-07T05:34:11;2.97;;;2.67;;
21162;SDS011;10739;52.198;20.908;2023-05-07T05:36:37;3.75;;;2.70;;
21162;SDS011;10739;52.198;20.908;2023-05-07T05:39:04;4.63;;;2.42;;
21162;SDS011;10739;52.198;20.908;2023-05-07T05:41:31;4.15;;;3.00;;
21162;SDS011;10739;52.198;20.908;2023-05-07T05:43:57;3.13;;;2.83;;
21162;SDS011;10739;52.198;20.908;2023-05-07T05:46:24;3.05;;;2.72;;
21162;SDS011;10739;52.198;20.908;2023-05-07T05:48:50;3.08;;;2.78;;
21162;SDS011;10739;52.198;20.908;2023-05-07T05:51:16;3.58;;;2.65;;
21162;SDS011;10739;52.198;20.908;2023-05-07T05:53:42;4.75;;;2.80;;
21162;SDS011;10739;52.198;20.908;2023-05-07T05:56:09;3.58;;;2.20;;
21162;SDS011;10739;52.198;20.908;2023-05-07T05:58:35;4.22;;;3.20;;
21162;SDS011;10739;52.198;20.908;2023-05-07T06:01:01;2.65;;;2.45;;
21162;SDS011;10739;52.198;20.908;2023-05-07T06:03:28;3.25;;;2.58;;
21162;SDS011;10739;52.198;20.908;2023-05-07T06:05:54;3.42;;;3.13;;
21162;SDS011;10739;52.198;20.908;2023-05-07T06:08:21;2.70;;;2.22;;
21162;SDS011;10739;52.198;20.908;2023-05-07T06:10:47;3.40;;;2.53;;
21162;SDS011;10739;52.198;20.908;2023-05-07T06:13:17;3.05;;;2.75;;
21162;SDS011;10739;52.198;20.908;2023-05-07T06:15:43;2.78;;;2.10;;
21162;SDS011;10739;52.198;20.908;2023-05-07T06:18:09;4.63;;;2.55;;
21162;SDS011;10739;52.198;20.908;2023-05-07T06:20:35;3.88;;;2.60;;
21162;SDS011;10739;52.198;20.908;2023-05-07T06:23:02;4.28;;;2.17;;
21162;SDS011;10739;52.198;20.908;2023-05-07T06:25:28;2.78;;;2.10;;
21162;SDS011;10739;52.198;20.908;2023-05-07T06:27:54;6.38;;;2.50;;
21162;SDS011;10739;52.198;20.908;2023-05-07T06:30:21;4.05;;;2.10;;
21162;SDS011;10739;52.198;20.908;2023-05-07T06:32:47;2.70;;;2.08;;
21162;SDS011;10739;52.198;20.908;2023-05-07T06:35:13;5.20;;;2.22;;
21162;SDS011;10739;52.198;20.908;2023-05-07T06:37:40;3.10;;;2.40;;
21162;SDS011;10739;52.198;20.908;2023-05-07T06:40:08;2.80;;;2.35;;
21162;SDS011;10739;52.198;20.908;2023-05-07T06:42:37;4.88;;;2.10;;
21162;SDS011;10739;52.198;20.908;2023-05-07T06:45:04;3.35;;;2.45;;
21162;SDS011;10739;52.198;20.908;2023-05-07T06:47:31;3.35;;;2.25;;
21162;SDS011;10739;52.198;20.908;2023-05-07T06:49:57;2.33;;;2.10;;
21162;SDS011;10739;52.198;20.908;2023-05-07T06:52:24;4.43;;;2.53;;
21162;SDS011;10739;52.198;20.908;2023-05-07T06:54:50;2.35;;;2.15;;
21162;SDS011;10739;52.198;20.908;2023-05-07T06:57:17;2.83;;;2.30;;
21162;SDS011;10739;52.198;20.908;2023-05-07T06:59:46;3.47;;;2.40;;
21162;SDS011;10739;52.198;20.908;2023-05-07T07:02:12;4.43;;;2.20;;
21162;SDS011;10739;52.198;20.908;2023-05-07T07:04:41;7.00;;;3.20;;
21162;SDS011;10739;52.198;20.908;2023-05-07T07:07:07;3.13;;;2.42;;
21162;SDS011;10739;52.198;20.908;2023-05-07T07:09:34;3.45;;;2.70;;
21162;SDS011;10739;52.198;20.908;2023-05-07T07:12:00;2.67;;;2.17;;
21162;SDS011;10739;52.198;20.908;2023-05-07T07:14:26;3.05;;;2.20;;
21162;SDS011;10739;52.198;20.908;2023-05-07T07:16:52;4.10;;;2.33;;
21162;SDS011;10739;52.198;20.908;2023-05-07T07:19:19;2.40;;;2.20;;
21162;SDS011;10739;52.198;20.908;2023-05-07T07:21:45;2.35;;;2.15;;
21162;SDS011;10739;52.198;20.908;2023-05-07T07:24:12;2.83;;;2.60;;
21162;SDS011;10739;52.198;20.908;2023-05-07T07:26:44;2.70;;;2.22;;
21162;SDS011;10739;52.198;20.908;2023-05-07T07:29:11;5.28;;;2.40;;
21162;SDS011;10739;52.198;20.908;2023-05-07T07:31:37;3.03;;;1.90;;
21162;SDS011;10739;52.198;20.908;2023-05-07T07:34:04;2.65;;;2.15;;
21162;SDS011;10739;52.198;20.908;2023-05-07T07:36:30;4.75;;;2.00;;
21162;SDS011;10739;52.198;20.908;2023-05-07T07:38:57;4.93;;;2.05;;
21162;SDS011;10739;52.198;20.908;2023-05-07T07:41:23;3.17;;;2.08;;
21162;SDS011;10739;52.198;20.908;2023-05-07T07:43:49;2.75;;;2.00;;
21162;SDS011;10739;52.198;20.908;2023-05-07T07:46:16;3.15;;;2.28;;
21162;SDS011;10739;52.198;20.908;2023-05-07T07:48:42;5.45;;;2.50;;
21162;SDS011;10739;52.198;20.908;2023-05-07T07:51:08;2.85;;;2.15;;
21162;SDS011;10739;52.198;20.908;2023-05-07T07:53:35;2.08;;;1.92;;
21162;SDS011;10739;52.198;20.908;2023-05-07T07:56:05;4.28;;;2.33;;
21162;SDS011;10739;52.198;20.908;2023-05-07T07:58:31;2.65;;;2.13;;
21162;SDS011;10739;52.198;20.908;2023-05-07T08:00:58;5.57;;;2.20;;
21162;SDS011;10739;52.198;20.908;2023-05-07T08:03:24;2.00;;;1.90;;
21162;SDS011;10739;52.198;20.908;2023-05-07T08:05:50;2.60;;;2.03;;
21162;SDS011;10739;52.198;20.908;2023-05-07T08:08:16;2.63;;;1.98;;
21162;SDS011;10739;52.198;20.908;2023-05-07T08:10:42;2.72;;;2.15;;
21162;SDS011;10739;52.198;20.908;2023-05-07T08:13:09;4.88;;;2.47;;
21162;SDS011;10739;52.198;20.908;2023-05-07T08:15:36;3.53;;;2.25;;
21162;SDS011;10739;52.198;20.908;2023-05-07T08:18:02;4.18;;;2.20;;
21162;SDS011;10739;52.198;20.908;2023-05-07T08:20:28;2.78;;;1.95;;
21162;SDS011;10739;52.198;20.908;2023-05-07T08:22:55;3.88;;;2.33;;
21162;SDS011;10739;52.198;20.908;2023-05-07T08:25:21;2.25;;;2.05;;
21162;SDS011;10739;52.198;20.908;2023-05-07T08:27:47;3.60;;;2.00;;
21162;SDS011;10739;52.198;20.908;2023-05-07T08:30:14;3.47;;;2.00;;
21162;SDS011;10739;52.198;20.908;2023-05-07T08:32:40;3.85;;;2.45;;
21162;SDS011;10739;52.198;20.908;2023-05-07T08:35:07;4.45;;;2.03;;
21162;SDS011;10739;52.198;20.908;2023-05-07T08:37:34;3.97;;;2.20;;
21162;SDS011;10739;52.198;20.908;2023-05-07T08:40:00;5.75;;;3.28;;
21162;SDS011;10739;52.198;20.908;2023-05-07T08:42:26;3.08;;;2.28;;
21162;SDS011;10739;52.198;20.908;2023-05-07T08:44:57;2.35;;;2.00;;
21162;SDS011;10739;52.198;20.908;2023-05-07T08:47:27;2.45;;;2.20;;
21162;SDS011;10739;52.198;20.908;2023-05-07T08:49:59;2.40;;;2.10;;
21162;SDS011;10739;52.198;20.908;2023-05-07T08:52:27;2.17;;;2.00;;
21162;SDS011;10739;52.198;20.908;2023-05-07T08:54:53;2.38;;;1.92;;
21162;SDS011;10739;52.198;20.908;2023-05-07T08:57:20;3.22;;;2.00;;
21162;SDS011;10739;52.198;20.908;2023-05-07T08:59:47;3.97;;;1.88;;
21162;SDS011;10739;52.198;20.908;2023-05-07T09:02:13;2.88;;;1.88;;
21162;SDS011;10739;52.198;20.908;2023-05-07T09:04:40;5.00;;;1.83;;
21162;SDS011;10739;52.198;20.908;2023-05-07T09:07:06;2.17;;;1.98;;
21162;SDS011;10739;52.198;20.908;2023-05-07T09:09:32;4.25;;;2.08;;
21162;SDS011;10739;52.198;20.908;2023-05-07T09:11:59;5.30;;;2.40;;
21162;SDS011;10739;52.198;20.908;2023-05-07T09:14:25;3.72;;;2.30;;
21162;SDS011;10739;52.198;20.908;2023-05-07T09:16:52;3.85;;;2.20;;
21162;SDS011;10739;52.198;20.908;2023-05-07T09:19:25;6.90;;;2.20;;
21162;SDS011;10739;52.198;20.908;2023-05-07T09:22:02;2.80;;;1.92;;
21162;SDS011;10739;52.198;20.908;2023-05-07T09:24:32;3.20;;;1.45;;
21162;SDS011;10739;52.198;20.908;2023-05-07T09:27:03;3.25;;;2.08;;
21162;SDS011;10739;52.198;20.908;2023-05-07T09:32:47;2.60;;;1.70;;
21162;SDS011;10739;52.198;20.908;2023-05-07T09:35:16;3.35;;;1.85;;
21162;SDS011;10739;52.198;20.908;2023-05-07T09:37:43;3.40;;;1.90;;
21162;SDS011;10739;52.198;20.908;2023-05-07T09:40:31;5.53;;;2.08;;
21162;SDS011;10739;52.198;20.908;2023-05-07T09:43:01;3.15;;;1.70;;
21162;SDS011;10739;52.198;20.908;2023-05-07T09:45:39;2.00;;;1.80;;
21162;SDS011;10739;52.198;20.908;2023-05-07T09:48:06;5.60;;;2.15;;
21162;SDS011;10739;52.198;20.908;2023-05-07T09:50:40;2.53;;;1.70;;
21162;SDS011;10739;52.198;20.908;2023-05-07T09:53:17;4.50;;;1.85;;
21162;SDS011;10739;52.198;20.908;2023-05-07T09:55:44;3.08;;;2.22;;
21162;SDS011;10739;52.198;20.908;2023-05-07T09:58:12;2.70;;;1.95;;
21162;SDS011;10739;52.198;20.908;2023-05-07T10:00:41;2.00;;;1.60;;
21162;SDS011;10739;52.198;20.908;2023-05-07T10:03:08;2.00;;;1.63;;
21162;SDS011;10739;52.198;20.908;2023-05-07T10:05:38;2.15;;;1.70;;
21162;SDS011;10739;52.198;20.908;2023-05-07T10:08:06;2.00;;;1.80;;
21162;SDS011;10739;52.198;20.908;2023-05-07T10:10:34;6.35;;;2.10;;
21162;SDS011;10739;52.198;20.908;2023-05-07T10:13:01;8.15;;;2.33;;
21162;SDS011;10739;52.198;20.908;2023-05-07T10:15:31;3.83;;;1.70;;
21162;SDS011;10739;52.198;20.908;2023-05-07T10:17:57;2.53;;;1.77;;
21162;SDS011;10739;52.198;20.908;2023-05-07T10:20:24;1.55;;;1.40;;
21162;SDS011;10739;52.198;20.908;2023-05-07T10:22:52;3.03;;;1.92;;
21162;SDS011;10739;52.198;20.908;2023-05-07T10:25:33;3.05;;;1.52;;
21162;SDS011;10739;52.198;20.908;2023-05-07T10:28:00;4.93;;;1.52;;
21162;SDS011;10739;52.198;20.908;2023-05-07T10:30:38;3.47;;;1.80;;
21162;SDS011;10739;52.198;20.908;2023-05-07T10:33:29;3.10;;;1.90;;
21162;SDS011;10739;52.198;20.908;2023-05-07T10:36:00;3.83;;;1.90;;
21162;SDS011;10739;52.198;20.908;2023-05-07T10:38:29;6.40;;;1.67;;
21162;SDS011;10739;52.198;20.908;2023-05-07T10:40:56;4.35;;;1.70;;
21162;SDS011;10739;52.198;20.908;2023-05-07T10:43:22;7.95;;;1.80;;
21162;SDS011;10739;52.198;20.908;2023-05-07T10:46:11;2.08;;;1.42;;
21162;SDS011;10739;52.198;20.908;2023-05-07T10:51:28;1.88;;;1.48;;
21162;SDS011;10739;52.198;20.908;2023-05-07T10:56:42;2.95;;;1.40;;
21162;SDS011;10739;52.198;20.908;2023-05-07T11:01:59;2.88;;;1.50;;
21162;SDS011;10739;52.198;20.908;2023-05-07T11:04:32;1.75;;;1.45;;
21162;SDS011;10739;52.198;20.908;2023-05-07T11:07:10;3.45;;;1.80;;
21162;SDS011;10739;52.198;20.908;2023-05-07T11:10:01;4.20;;;1.50;;
21162;SDS011;10739;52.198;20.908;2023-05-07T11:15:02;6.45;;;1.75;;
21162;SDS011;10739;52.198;20.908;2023-05-07T11:17:29;2.80;;;1.65;;
21162;SDS011;10739;52.198;20.908;2023-05-07T11:20:00;2.40;;;1.42;;
21162;SDS011;10739;52.198;20.908;2023-05-07T11:25:00;3.67;;;1.95;;
21162;SDS011;10739;52.198;20.908;2023-05-07T11:27:28;3.53;;;1.80;;
21162;SDS011;10739;52.198;20.908;2023-05-07T11:29:55;4.32;;;1.50;;
21162;SDS011;10739;52.198;20.908;2023-05-07T11:32:26;3.83;;;1.83;;
21162;SDS011;10739;52.198;20.908;2023-05-07T11:34:57;4.13;;;1.90;;
21162;SDS011;10739;52.198;20.908;2023-05-07T11:37:26;2.92;;;1.65;;
21162;SDS011;10739;52.198;20.908;2023-05-07T11:40:04;2.42;;;1.80;;
21162;SDS011;10739;52.198;20.908;2023-05-07T11:42:47;3.17;;;1.77;;
21162;SDS011;10739;52.198;20.908;2023-05-07T11:45:14;1.90;;;1.63;;
21162;SDS011;10739;52.198;20.908;2023-05-07T11:47:52;2.08;;;1.50;;
21162;SDS011;10739;52.198;20.908;2023-05-07T11:50:18;3.80;;;1.27;;
21162;SDS011;10739;52.198;20.908;2023-05-07T11:52:51;2.45;;;1.50;;
21162;SDS011;10739;52.198;20.908;2023-05-07T11:55:18;2.40;;;1.50;;
21162;SDS011;10739;52.198;20.908;2023-05-07T11:57:45;4.75;;;1.95;;
21162;SDS011;10739;52.198;20.908;2023-05-07T12:00:12;4.85;;;2.05;;
21162;SDS011;10739;52.198;20.908;2023-05-07T12:02:42;4.10;;;2.00;;
21162;SDS011;10739;52.198;20.908;2023-05-07T12:05:11;1.80;;;1.58;;
21162;SDS011;10739;52.198;20.908;2023-05-07T12:07:37;2.92;;;2.25;;
21162;SDS011;10739;52.198;20.908;2023-05-07T12:10:04;6.38;;;2.30;;
21162;SDS011;10739;52.198;20.908;2023-05-07T12:12:37;2.88;;;1.80;;
21162;SDS011;10739;52.198;20.908;2023-05-07T12:15:07;3.00;;;1.60;;
21162;SDS011;10739;52.198;20.908;2023-05-07T12:17:34;1.88;;;1.40;;
21162;SDS011;10739;52.198;20.908;2023-05-07T12:20:00;3.63;;;1.55;;
21162;SDS011;10739;52.198;20.908;2023-05-07T12:22:27;2.40;;;1.83;;
21162;SDS011;10739;52.198;20.908;2023-05-07T12:24:57;1.83;;;1.70;;
21162;SDS011;10739;52.198;20.908;2023-05-07T12:27:25;2.67;;;1.40;;
21162;SDS011;10739;52.198;20.908;2023-05-07T12:29:51;2.70;;;1.70;;
21162;SDS011;10739;52.198;20.908;2023-05-07T12:32:19;3.75;;;1.70;;
21162;SDS011;10739;52.198;20.908;2023-05-07T12:34:49;2.05;;;1.50;;
21162;SDS011;10739;52.198;20.908;2023-05-07T12:37:22;1.42;;;1.33;;
21162;SDS011;10739;52.198;20.908;2023-05-07T12:40:04;4.30;;;1.50;;
21162;SDS011;10739;52.198;20.908;2023-05-07T12:42:36;4.05;;;1.60;;
21162;SDS011;10739;52.198;20.908;2023-05-07T12:47:37;2.97;;;1.83;;
21162;SDS011;10739;52.198;20.908;2023-05-07T12:50:06;3.70;;;2.10;;
21162;SDS011;10739;52.198;20.908;2023-05-07T12:52:33;3.53;;;1.55;;
21162;SDS011;10739;52.198;20.908;2023-05-07T12:55:06;2.08;;;1.50;;
21162;SDS011;10739;52.198;20.908;2023-05-07T12:57:37;1.60;;;1.50;;
21162;SDS011;10739;52.198;20.908;2023-05-07T13:00:09;2.70;;;1.58;;
21162;SDS011;10739;52.198;20.908;2023-05-07T13:02:39;1.80;;;1.70;;
21162;SDS011;10739;52.198;20.908;2023-05-07T13:05:09;3.25;;;2.08;;
21162;SDS011;10739;52.198;20.908;2023-05-07T13:07:36;3.17;;;1.90;;
21162;SDS011;10739;52.198;20.908;2023-05-07T13:10:06;3.30;;;1.48;;
21162;SDS011;10739;52.198;20.908;2023-05-07T13:12:35;3.17;;;1.67;;
21162;SDS011;10739;52.198;20.908;2023-05-07T13:15:01;1.75;;;1.15;;
21162;SDS011;10739;52.198;20.908;2023-05-07T13:17:28;1.60;;;1.50;;
21162;SDS011;10739;52.198;20.908;2023-05-07T13:19:56;2.65;;;1.60;;
21162;SDS011;10739;52.198;20.908;2023-05-07T13:22:22;1.98;;;1.38;;
21162;SDS011;10739;52.198;20.908;2023-05-07T13:24:49;2.63;;;1.60;;
21162;SDS011;10739;52.198;20.908;2023-05-07T13:27:15;5.18;;;2.22;;
21162;SDS011;10739;52.198;20.908;2023-05-07T13:29:42;2.42;;;2.00;;
21162;SDS011;10739;52.198;20.908;2023-05-07T13:32:08;2.58;;;1.70;;
21162;SDS011;10739;52.198;20.908;2023-05-07T13:34:34;4.93;;;2.05;;
21162;SDS011;10739;52.198;20.908;2023-05-07T13:37:00;2.83;;;1.60;;
21162;SDS011;10739;52.198;20.908;2023-05-07T13:39:27;1.83;;;1.50;;
21162;SDS011;10739;52.198;20.908;2023-05-07T13:41:53;2.60;;;1.73;;
21162;SDS011;10739;52.198;20.908;2023-05-07T13:44:19;2.05;;;1.67;;
21162;SDS011;10739;52.198;20.908;2023-05-07T13:46:46;4.25;;;1.88;;
21162;SDS011;10739;52.198;20.908;2023-05-07T13:49:12;1.33;;;1.23;;
21162;SDS011;10739;52.198;20.908;2023-05-07T13:51:38;2.97;;;1.48;;
21162;SDS011;10739;52.198;20.908;2023-05-07T13:54:05;2.13;;;1.73;;
21162;SDS011;10739;52.198;20.908;2023-05-07T13:56:31;2.22;;;1.50;;
21162;SDS011;10739;52.198;20.908;2023-05-07T13:59:01;3.85;;;1.50;;
21162;SDS011;10739;52.198;20.908;2023-05-07T14:01:27;5.45;;;1.50;;
21162;SDS011;10739;52.198;20.908;2023-05-07T14:03:53;1.60;;;1.30;;
21162;SDS011;10739;52.198;20.908;2023-05-07T14:06:21;1.83;;;1.55;;
21162;SDS011;10739;52.198;20.908;2023-05-07T14:08:48;1.35;;;1.20;;
21162;SDS011;10739;52.198;20.908;2023-05-07T14:11:14;2.58;;;1.65;;
21162;SDS011;10739;52.198;20.908;2023-05-07T14:13:40;3.70;;;1.52;;
21162;SDS011;10739;52.198;20.908;2023-05-07T14:16:07;3.58;;;1.38;;
21162;SDS011;10739;52.198;20.908;2023-05-07T14:18:33;2.72;;;1.77;;
21162;SDS011;10739;52.198;20.908;2023-05-07T14:21:00;4.30;;;1.52;;
21162;SDS011;10739;52.198;20.908;2023-05-07T14:23:26;3.20;;;1.50;;
21162;SDS011;10739;52.198;20.908;2023-05-07T14:25:53;4.00;;;1.92;;
21162;SDS011;10739;52.198;20.908;2023-05-07T14:28:20;1.88;;;1.52;;
21162;SDS011;10739;52.198;20.908;2023-05-07T14:30:47;1.40;;;1.30;;
21162;SDS011;10739;52.198;20.908;2023-05-07T14:33:13;1.88;;;1.40;;
21162;SDS011;10739;52.198;20.908;2023-05-07T14:35:40;2.95;;;1.95;;
21162;SDS011;10739;52.198;20.908;2023-05-07T14:38:06;6.00;;;1.92;;
21162;SDS011;10739;52.198;20.908;2023-05-07T14:40:32;4.15;;;1.65;;
21162;SDS011;10739;52.198;20.908;2023-05-07T14:42:59;1.80;;;1.52;;
21162;SDS011;10739;52.198;20.908;2023-05-07T14:45:25;5.25;;;1.77;;
21162;SDS011;10739;52.198;20.908;2023-05-07T14:47:52;1.90;;;1.40;;
21162;SDS011;10739;52.198;20.908;2023-05-07T14:50:18;3.45;;;1.52;;
21162;SDS011;10739;52.198;20.908;2023-05-07T14:52:45;1.83;;;1.30;;
21162;SDS011;10739;52.198;20.908;2023-05-07T14:55:11;1.63;;;1.50;;